sensor_id;sensor_type;location;lat;lon;timestamp;P1;durP1;ratioP1;P2;durP2;ratioP2
21886;SDS011;11108;49.988;8.182;2023-07-22T00:00:36;1.43;;;1.43;;
21886;SDS011;11108;49.988;8.182;2023-07-22T00:03:02;1.47;;;1.47;;
21886;SDS011;11108;49.988;8.182;2023-07-22T00:05:27;1.47;;;1.37;;
21886;SDS011;11108;49.988;8.182;2023-07-22T00:07:52;1.57;;;1.50;;
21886;SDS011;11108;49.988;8.182;2023-07-22T00:10:17;1.37;;;1.37;;
21886;SDS011;11108;49.988;8.182;2023-07-22T00:12:42;1.80;;;1.70;;
21886;SDS011;11108;49.988;8.182;2023-07-22T00:15:08;1.40;;;1.40;;
21886;SDS011;11108;49.988;8.182;2023-07-22T00:17:33;1.37;;;1.37;;
21886;SDS011;11108;49.988;8.182;2023-07-22T00:19:58;1.30;;;1.30;;
21886;SDS011;11108;49.988;8.182;2023-07-22T00:22:25;1.33;;;1.33;;
21886;SDS011;11108;49.988;8.182;2023-07-22T00:24:51;1.20;;;1.20;;
21886;SDS011;11108;49.988;8.182;2023-07-22T00:27:17;1.23;;;1.23;;
21886;SDS011;11108;49.988;8.182;2023-07-22T00:29:42;1.53;;;1.43;;
21886;SDS011;11108;49.988;8.182;2023-07-22T00:32:07;1.30;;;1.30;;
21886;SDS011;11108;49.988;8.182;2023-07-22T00:34:33;1.70;;;1.60;;
21886;SDS011;11108;49.988;8.182;2023-07-22T00:36:58;1.67;;;1.57;;
21886;SDS011;11108;49.988;8.182;2023-07-22T00:39:24;1.60;;;1.50;;
21886;SDS011;11108;49.988;8.182;2023-07-22T00:41:49;1.30;;;1.30;;
21886;SDS011;11108;49.988;8.182;2023-07-22T00:44:14;1.30;;;1.30;;
21886;SDS011;11108;49.988;8.182;2023-07-22T00:46:39;1.30;;;1.30;;
21886;SDS011;11108;49.988;8.182;2023-07-22T00:49:08;1.57;;;1.47;;
21886;SDS011;11108;49.988;8.182;2023-07-22T00:51:33;1.40;;;1.37;;
21886;SDS011;11108;49.988;8.182;2023-07-22T00:53:58;1.40;;;1.40;;
21886;SDS011;11108;49.988;8.182;2023-07-22T00:56:23;1.53;;;1.53;;
21886;SDS011;11108;49.988;8.182;2023-07-22T00:58:49;1.70;;;1.60;;
21886;SDS011;11108;49.988;8.182;2023-07-22T01:01:14;1.37;;;1.37;;
21886;SDS011;11108;49.988;8.182;2023-07-22T01:03:39;1.43;;;1.43;;
21886;SDS011;11108;49.988;8.182;2023-07-22T01:06:06;1.50;;;1.50;;
21886;SDS011;11108;49.988;8.182;2023-07-22T01:08:32;1.40;;;1.40;;
21886;SDS011;11108;49.988;8.182;2023-07-22T01:10:57;1.50;;;1.50;;
21886;SDS011;11108;49.988;8.182;2023-07-22T01:13:22;1.63;;;1.63;;
21886;SDS011;11108;49.988;8.182;2023-07-22T01:15:47;1.50;;;1.50;;
21886;SDS011;11108;49.988;8.182;2023-07-22T01:18:13;1.50;;;1.50;;
21886;SDS011;11108;49.988;8.182;2023-07-22T01:20:38;1.50;;;1.50;;
21886;SDS011;11108;49.988;8.182;2023-07-22T01:23:04;1.37;;;1.37;;
21886;SDS011;11108;49.988;8.182;2023-07-22T01:25:29;1.50;;;1.50;;
21886;SDS011;11108;49.988;8.182;2023-07-22T01:27:55;1.17;;;1.17;;
21886;SDS011;11108;49.988;8.182;2023-07-22T01:30:20;1.57;;;1.57;;
21886;SDS011;11108;49.988;8.182;2023-07-22T01:32:49;1.40;;;1.40;;
21886;SDS011;11108;49.988;8.182;2023-07-22T01:35:15;1.50;;;1.50;;
21886;SDS011;11108;49.988;8.182;2023-07-22T01:37:40;1.50;;;1.40;;
21886;SDS011;11108;49.988;8.182;2023-07-22T01:40:05;1.47;;;1.40;;
21886;SDS011;11108;49.988;8.182;2023-07-22T01:42:37;1.47;;;1.47;;
21886;SDS011;11108;49.988;8.182;2023-07-22T01:45:02;1.70;;;1.60;;
21886;SDS011;11108;49.988;8.182;2023-07-22T01:47:27;1.50;;;1.50;;
21886;SDS011;11108;49.988;8.182;2023-07-22T01:49:53;1.63;;;1.53;;
21886;SDS011;11108;49.988;8.182;2023-07-22T01:52:18;1.63;;;1.40;;
21886;SDS011;11108;49.988;8.182;2023-07-22T01:54:43;2.23;;;1.60;;
21886;SDS011;11108;49.988;8.182;2023-07-22T01:57:08;1.80;;;1.70;;
21886;SDS011;11108;49.988;8.182;2023-07-22T01:59:34;1.73;;;1.63;;
21886;SDS011;11108;49.988;8.182;2023-07-22T02:01:59;1.80;;;1.70;;
21886;SDS011;11108;49.988;8.182;2023-07-22T02:04:24;1.50;;;1.50;;
21886;SDS011;11108;49.988;8.182;2023-07-22T02:06:49;1.47;;;1.47;;
21886;SDS011;11108;49.988;8.182;2023-07-22T02:09:15;1.60;;;1.60;;
21886;SDS011;11108;49.988;8.182;2023-07-22T02:11:40;1.60;;;1.50;;
21886;SDS011;11108;49.988;8.182;2023-07-22T02:14:05;1.40;;;1.40;;
21886;SDS011;11108;49.988;8.182;2023-07-22T02:16:34;1.87;;;1.50;;
21886;SDS011;11108;49.988;8.182;2023-07-22T02:18:59;1.47;;;1.47;;
21886;SDS011;11108;49.988;8.182;2023-07-22T02:21:24;1.43;;;1.43;;
21886;SDS011;11108;49.988;8.182;2023-07-22T02:23:50;1.60;;;1.50;;
21886;SDS011;11108;49.988;8.182;2023-07-22T02:26:15;1.30;;;1.27;;
21886;SDS011;11108;49.988;8.182;2023-07-22T02:28:40;1.60;;;1.60;;
21886;SDS011;11108;49.988;8.182;2023-07-22T02:31:05;1.70;;;1.60;;
21886;SDS011;11108;49.988;8.182;2023-07-22T02:33:32;1.60;;;1.50;;
21886;SDS011;11108;49.988;8.182;2023-07-22T02:35:57;1.43;;;1.43;;
21886;SDS011;11108;49.988;8.182;2023-07-22T02:38:22;1.60;;;1.53;;
21886;SDS011;11108;49.988;8.182;2023-07-22T02:40:47;1.53;;;1.53;;
21886;SDS011;11108;49.988;8.182;2023-07-22T02:43:12;1.90;;;1.80;;
21886;SDS011;11108;49.988;8.182;2023-07-22T02:45:38;1.80;;;1.70;;
21886;SDS011;11108;49.988;8.182;2023-07-22T02:48:03;1.60;;;1.60;;
21886;SDS011;11108;49.988;8.182;2023-07-22T02:50:28;1.50;;;1.40;;
21886;SDS011;11108;49.988;8.182;2023-07-22T02:52:53;1.73;;;1.63;;
21886;SDS011;11108;49.988;8.182;2023-07-22T02:55:19;1.57;;;1.57;;
21886;SDS011;11108;49.988;8.182;2023-07-22T02:57:44;1.80;;;1.70;;
21886;SDS011;11108;49.988;8.182;2023-07-22T03:00:11;1.70;;;1.67;;
21886;SDS011;11108;49.988;8.182;2023-07-22T03:02:37;2.23;;;2.03;;
21886;SDS011;11108;49.988;8.182;2023-07-22T03:05:03;2.07;;;1.97;;
21886;SDS011;11108;49.988;8.182;2023-07-22T03:07:31;1.70;;;1.60;;
21886;SDS011;11108;49.988;8.182;2023-07-22T03:09:57;1.77;;;1.77;;
21886;SDS011;11108;49.988;8.182;2023-07-22T03:12:22;1.40;;;1.40;;
21886;SDS011;11108;49.988;8.182;2023-07-22T03:14:47;1.70;;;1.60;;
21886;SDS011;11108;49.988;8.182;2023-07-22T03:17:14;1.70;;;1.60;;
21886;SDS011;11108;49.988;8.182;2023-07-22T03:19:41;1.73;;;1.63;;
21886;SDS011;11108;49.988;8.182;2023-07-22T03:22:06;1.53;;;1.43;;
21886;SDS011;11108;49.988;8.182;2023-07-22T03:24:31;1.67;;;1.50;;
21886;SDS011;11108;49.988;8.182;2023-07-22T03:26:57;1.73;;;1.63;;
21886;SDS011;11108;49.988;8.182;2023-07-22T03:29:22;1.70;;;1.67;;
21886;SDS011;11108;49.988;8.182;2023-07-22T03:31:49;1.57;;;1.57;;
21886;SDS011;11108;49.988;8.182;2023-07-22T03:34:14;1.80;;;1.70;;
21886;SDS011;11108;49.988;8.182;2023-07-22T03:36:40;1.47;;;1.47;;
21886;SDS011;11108;49.988;8.182;2023-07-22T03:39:05;1.87;;;1.77;;
21886;SDS011;11108;49.988;8.182;2023-07-22T03:41:31;2.20;;;2.10;;
21886;SDS011;11108;49.988;8.182;2023-07-22T03:43:56;1.70;;;1.70;;
21886;SDS011;11108;49.988;8.182;2023-07-22T03:46:21;1.77;;;1.77;;
21886;SDS011;11108;49.988;8.182;2023-07-22T03:48:46;2.00;;;1.90;;
21886;SDS011;11108;49.988;8.182;2023-07-22T03:51:11;1.97;;;1.87;;
21886;SDS011;11108;49.988;8.182;2023-07-22T03:53:37;1.77;;;1.67;;
21886;SDS011;11108;49.988;8.182;2023-07-22T03:56:02;1.67;;;1.60;;
21886;SDS011;11108;49.988;8.182;2023-07-22T03:58:27;1.70;;;1.60;;
21886;SDS011;11108;49.988;8.182;2023-07-22T04:00:52;1.77;;;1.67;;
21886;SDS011;11108;49.988;8.182;2023-07-22T04:03:17;1.47;;;1.47;;
21886;SDS011;11108;49.988;8.182;2023-07-22T04:05:43;1.60;;;1.60;;
21886;SDS011;11108;49.988;8.182;2023-07-22T04:08:08;1.87;;;1.80;;
21886;SDS011;11108;49.988;8.182;2023-07-22T04:10:33;1.90;;;1.60;;
21886;SDS011;11108;49.988;8.182;2023-07-22T04:12:58;1.77;;;1.67;;
21886;SDS011;11108;49.988;8.182;2023-07-22T04:15:23;1.80;;;1.70;;
21886;SDS011;11108;49.988;8.182;2023-07-22T04:17:49;1.57;;;1.57;;
21886;SDS011;11108;49.988;8.182;2023-07-22T04:20:14;1.87;;;1.77;;
21886;SDS011;11108;49.988;8.182;2023-07-22T04:22:39;1.80;;;1.70;;
21886;SDS011;11108;49.988;8.182;2023-07-22T04:25:04;1.93;;;1.83;;
21886;SDS011;11108;49.988;8.182;2023-07-22T04:27:30;1.77;;;1.67;;
21886;SDS011;11108;49.988;8.182;2023-07-22T04:29:55;1.53;;;1.53;;
21886;SDS011;11108;49.988;8.182;2023-07-22T04:32:21;1.80;;;1.70;;
21886;SDS011;11108;49.988;8.182;2023-07-22T04:34:46;1.83;;;1.83;;
21886;SDS011;11108;49.988;8.182;2023-07-22T04:37:11;1.97;;;1.87;;
21886;SDS011;11108;49.988;8.182;2023-07-22T04:39:37;1.83;;;1.77;;
21886;SDS011;11108;49.988;8.182;2023-07-22T04:42:03;1.60;;;1.60;;
21886;SDS011;11108;49.988;8.182;2023-07-22T04:44:28;1.87;;;1.80;;
21886;SDS011;11108;49.988;8.182;2023-07-22T04:46:53;1.67;;;1.67;;
21886;SDS011;11108;49.988;8.182;2023-07-22T04:49:19;1.60;;;1.60;;
21886;SDS011;11108;49.988;8.182;2023-07-22T04:51:47;2.17;;;2.07;;
21886;SDS011;11108;49.988;8.182;2023-07-22T04:54:13;2.00;;;1.90;;
21886;SDS011;11108;49.988;8.182;2023-07-22T04:56:38;1.97;;;1.87;;
21886;SDS011;11108;49.988;8.182;2023-07-22T04:59:04;1.87;;;1.77;;
21886;SDS011;11108;49.988;8.182;2023-07-22T05:01:29;1.90;;;1.80;;
21886;SDS011;11108;49.988;8.182;2023-07-22T05:03:54;1.70;;;1.70;;
21886;SDS011;11108;49.988;8.182;2023-07-22T05:06:20;1.70;;;1.70;;
21886;SDS011;11108;49.988;8.182;2023-07-22T05:08:45;1.50;;;1.50;;
21886;SDS011;11108;49.988;8.182;2023-07-22T05:11:10;1.83;;;1.73;;
21886;SDS011;11108;49.988;8.182;2023-07-22T05:13:35;1.83;;;1.70;;
21886;SDS011;11108;49.988;8.182;2023-07-22T05:16:01;1.77;;;1.70;;
21886;SDS011;11108;49.988;8.182;2023-07-22T05:18:26;2.03;;;1.93;;
21886;SDS011;11108;49.988;8.182;2023-07-22T05:20:51;2.00;;;1.90;;
21886;SDS011;11108;49.988;8.182;2023-07-22T05:23:16;1.80;;;1.70;;
21886;SDS011;11108;49.988;8.182;2023-07-22T05:25:41;2.13;;;1.93;;
21886;SDS011;11108;49.988;8.182;2023-07-22T05:28:06;1.70;;;1.67;;
21886;SDS011;11108;49.988;8.182;2023-07-22T05:30:32;1.43;;;1.43;;
21886;SDS011;11108;49.988;8.182;2023-07-22T05:32:57;1.90;;;1.83;;
21886;SDS011;11108;49.988;8.182;2023-07-22T05:35:22;1.95;;;1.85;;
21886;SDS011;11108;49.988;8.182;2023-07-22T05:37:48;1.77;;;1.67;;
21886;SDS011;11108;49.988;8.182;2023-07-22T05:40:14;1.93;;;1.83;;
21886;SDS011;11108;49.988;8.182;2023-07-22T05:42:39;1.80;;;1.70;;
21886;SDS011;11108;49.988;8.182;2023-07-22T05:45:04;2.03;;;1.93;;
21886;SDS011;11108;49.988;8.182;2023-07-22T05:47:29;2.13;;;2.03;;
21886;SDS011;11108;49.988;8.182;2023-07-22T05:49:55;1.90;;;1.80;;
21886;SDS011;11108;49.988;8.182;2023-07-22T05:52:20;1.70;;;1.70;;
21886;SDS011;11108;49.988;8.182;2023-07-22T05:54:45;1.70;;;1.70;;
21886;SDS011;11108;49.988;8.182;2023-07-22T05:57:10;1.50;;;1.50;;
21886;SDS011;11108;49.988;8.182;2023-07-22T05:59:36;1.90;;;1.80;;
21886;SDS011;11108;49.988;8.182;2023-07-22T06:02:01;1.90;;;1.80;;
21886;SDS011;11108;49.988;8.182;2023-07-22T06:04:27;1.53;;;1.53;;
21886;SDS011;11108;49.988;8.182;2023-07-22T06:06:53;1.50;;;1.50;;
21886;SDS011;11108;49.988;8.182;2023-07-22T06:09:18;1.87;;;1.77;;
21886;SDS011;11108;49.988;8.182;2023-07-22T06:11:44;1.90;;;1.80;;
21886;SDS011;11108;49.988;8.182;2023-07-22T06:14:10;1.40;;;1.40;;
21886;SDS011;11108;49.988;8.182;2023-07-22T06:16:35;1.70;;;1.70;;
21886;SDS011;11108;49.988;8.182;2023-07-22T06:19:00;2.27;;;2.17;;
21886;SDS011;11108;49.988;8.182;2023-07-22T06:21:25;1.60;;;1.60;;
21886;SDS011;11108;49.988;8.182;2023-07-22T06:23:51;1.93;;;1.83;;
21886;SDS011;11108;49.988;8.182;2023-07-22T06:26:16;2.03;;;1.93;;
21886;SDS011;11108;49.988;8.182;2023-07-22T06:28:41;2.27;;;2.10;;
21886;SDS011;11108;49.988;8.182;2023-07-22T06:31:07;2.00;;;1.90;;
21886;SDS011;11108;49.988;8.182;2023-07-22T06:33:32;2.00;;;1.90;;
21886;SDS011;11108;49.988;8.182;2023-07-22T06:35:58;1.90;;;1.80;;
21886;SDS011;11108;49.988;8.182;2023-07-22T06:38:23;2.03;;;1.93;;
21886;SDS011;11108;49.988;8.182;2023-07-22T06:40:48;1.63;;;1.60;;
21886;SDS011;11108;49.988;8.182;2023-07-22T06:43:14;1.73;;;1.63;;
21886;SDS011;11108;49.988;8.182;2023-07-22T06:45:39;1.80;;;1.70;;
21886;SDS011;11108;49.988;8.182;2023-07-22T06:48:04;1.90;;;1.80;;
21886;SDS011;11108;49.988;8.182;2023-07-22T06:50:29;2.00;;;1.90;;
21886;SDS011;11108;49.988;8.182;2023-07-22T06:52:54;1.83;;;1.73;;
21886;SDS011;11108;49.988;8.182;2023-07-22T06:55:20;1.83;;;1.73;;
21886;SDS011;11108;49.988;8.182;2023-07-22T06:57:45;2.00;;;1.90;;
21886;SDS011;11108;49.988;8.182;2023-07-22T07:00:10;2.00;;;1.90;;
21886;SDS011;11108;49.988;8.182;2023-07-22T07:02:36;1.90;;;1.80;;
21886;SDS011;11108;49.988;8.182;2023-07-22T07:05:01;1.80;;;1.70;;
21886;SDS011;11108;49.988;8.182;2023-07-22T07:07:26;1.77;;;1.67;;
21886;SDS011;11108;49.988;8.182;2023-07-22T07:09:51;2.00;;;1.90;;
21886;SDS011;11108;49.988;8.182;2023-07-22T07:12:16;2.00;;;1.90;;
21886;SDS011;11108;49.988;8.182;2023-07-22T07:14:42;1.93;;;1.83;;
21886;SDS011;11108;49.988;8.182;2023-07-22T07:17:07;2.00;;;1.90;;
21886;SDS011;11108;49.988;8.182;2023-07-22T07:19:32;2.00;;;1.90;;
21886;SDS011;11108;49.988;8.182;2023-07-22T07:21:57;2.00;;;1.90;;
21886;SDS011;11108;49.988;8.182;2023-07-22T07:24:22;2.10;;;2.00;;
21886;SDS011;11108;49.988;8.182;2023-07-22T07:26:48;2.20;;;2.10;;
21886;SDS011;11108;49.988;8.182;2023-07-22T07:29:13;2.13;;;2.03;;
21886;SDS011;11108;49.988;8.182;2023-07-22T07:31:38;1.97;;;1.87;;
21886;SDS011;11108;49.988;8.182;2023-07-22T07:34:04;1.90;;;1.80;;
21886;SDS011;11108;49.988;8.182;2023-07-22T07:36:29;2.17;;;2.07;;
21886;SDS011;11108;49.988;8.182;2023-07-22T07:38:54;2.40;;;2.20;;
21886;SDS011;11108;49.988;8.182;2023-07-22T07:41:20;2.00;;;1.90;;
21886;SDS011;11108;49.988;8.182;2023-07-22T07:43:45;2.20;;;2.00;;
21886;SDS011;11108;49.988;8.182;2023-07-22T07:46:21;2.33;;;2.17;;
21886;SDS011;11108;49.988;8.182;2023-07-22T07:48:48;1.90;;;1.90;;
21886;SDS011;11108;49.988;8.182;2023-07-22T07:51:13;2.00;;;1.90;;
21886;SDS011;11108;49.988;8.182;2023-07-22T07:53:39;2.03;;;1.93;;
21886;SDS011;11108;49.988;8.182;2023-07-22T07:56:04;2.07;;;1.97;;
21886;SDS011;11108;49.988;8.182;2023-07-22T07:58:30;3.05;;;1.77;;
21886;SDS011;11108;49.988;8.182;2023-07-22T08:00:55;2.00;;;1.90;;
21886;SDS011;11108;49.988;8.182;2023-07-22T08:03:20;2.30;;;1.90;;
21886;SDS011;11108;49.988;8.182;2023-07-22T08:05:45;2.30;;;2.10;;
21886;SDS011;11108;49.988;8.182;2023-07-22T08:08:11;2.10;;;2.00;;
21886;SDS011;11108;49.988;8.182;2023-07-22T08:10:36;1.90;;;1.80;;
21886;SDS011;11108;49.988;8.182;2023-07-22T08:13:01;2.17;;;2.07;;
21886;SDS011;11108;49.988;8.182;2023-07-22T08:15:27;2.30;;;2.20;;
21886;SDS011;11108;49.988;8.182;2023-07-22T08:17:52;1.90;;;1.80;;
21886;SDS011;11108;49.988;8.182;2023-07-22T08:20:18;2.10;;;2.00;;
21886;SDS011;11108;49.988;8.182;2023-07-22T08:22:43;2.10;;;1.87;;
21886;SDS011;11108;49.988;8.182;2023-07-22T08:25:08;2.13;;;2.03;;
21886;SDS011;11108;49.988;8.182;2023-07-22T08:27:33;2.30;;;2.20;;
21886;SDS011;11108;49.988;8.182;2023-07-22T08:29:58;2.10;;;2.00;;
21886;SDS011;11108;49.988;8.182;2023-07-22T08:32:24;2.10;;;2.00;;
21886;SDS011;11108;49.988;8.182;2023-07-22T08:34:49;2.37;;;2.27;;
21886;SDS011;11108;49.988;8.182;2023-07-22T08:37:14;1.80;;;1.73;;
21886;SDS011;11108;49.988;8.182;2023-07-22T08:39:39;2.07;;;1.97;;
21886;SDS011;11108;49.988;8.182;2023-07-22T08:42:05;2.40;;;2.20;;
21886;SDS011;11108;49.988;8.182;2023-07-22T08:44:32;2.40;;;2.30;;
21886;SDS011;11108;49.988;8.182;2023-07-22T08:47:00;2.20;;;2.00;;
21886;SDS011;11108;49.988;8.182;2023-07-22T08:49:26;2.33;;;2.13;;
21886;SDS011;11108;49.988;8.182;2023-07-22T08:51:52;2.23;;;2.13;;
21886;SDS011;11108;49.988;8.182;2023-07-22T08:54:18;2.37;;;2.27;;
21886;SDS011;11108;49.988;8.182;2023-07-22T08:56:45;2.23;;;2.13;;
21886;SDS011;11108;49.988;8.182;2023-07-22T08:59:10;2.00;;;1.90;;
21886;SDS011;11108;49.988;8.182;2023-07-22T09:01:36;2.03;;;1.93;;
21886;SDS011;11108;49.988;8.182;2023-07-22T09:04:02;2.23;;;2.13;;
21886;SDS011;11108;49.988;8.182;2023-07-22T09:06:27;2.10;;;2.00;;
21886;SDS011;11108;49.988;8.182;2023-07-22T09:08:53;2.07;;;2.00;;
21886;SDS011;11108;49.988;8.182;2023-07-22T09:11:19;2.10;;;2.00;;
21886;SDS011;11108;49.988;8.182;2023-07-22T09:13:44;1.90;;;1.80;;
21886;SDS011;11108;49.988;8.182;2023-07-22T09:16:10;2.50;;;2.30;;
21886;SDS011;11108;49.988;8.182;2023-07-22T09:18:36;2.03;;;1.93;;
21886;SDS011;11108;49.988;8.182;2023-07-22T09:21:01;2.40;;;2.30;;
21886;SDS011;11108;49.988;8.182;2023-07-22T09:23:33;2.27;;;2.10;;
21886;SDS011;11108;49.988;8.182;2023-07-22T09:26:07;2.10;;;2.00;;
21886;SDS011;11108;49.988;8.182;2023-07-22T09:28:46;2.20;;;2.10;;
21886;SDS011;11108;49.988;8.182;2023-07-22T09:31:12;2.50;;;2.40;;
21886;SDS011;11108;49.988;8.182;2023-07-22T09:33:37;2.23;;;2.03;;
21886;SDS011;11108;49.988;8.182;2023-07-22T09:36:04;2.10;;;2.00;;
21886;SDS011;11108;49.988;8.182;2023-07-22T09:38:29;2.00;;;1.90;;
21886;SDS011;11108;49.988;8.182;2023-07-22T09:40:54;2.20;;;2.10;;
21886;SDS011;11108;49.988;8.182;2023-07-22T09:43:20;2.00;;;1.90;;
21886;SDS011;11108;49.988;8.182;2023-07-22T09:45:46;2.00;;;1.90;;
21886;SDS011;11108;49.988;8.182;2023-07-22T09:48:12;2.10;;;2.00;;
21886;SDS011;11108;49.988;8.182;2023-07-22T09:50:37;2.23;;;2.13;;
21886;SDS011;11108;49.988;8.182;2023-07-22T09:53:02;2.20;;;2.10;;
21886;SDS011;11108;49.988;8.182;2023-07-22T09:55:28;2.53;;;2.43;;
21886;SDS011;11108;49.988;8.182;2023-07-22T09:58:04;2.30;;;2.20;;
21886;SDS011;11108;49.988;8.182;2023-07-22T10:00:39;2.70;;;2.20;;
21886;SDS011;11108;49.988;8.182;2023-07-22T10:03:09;2.27;;;2.17;;
21886;SDS011;11108;49.988;8.182;2023-07-22T10:05:35;2.35;;;2.25;;
21886;SDS011;11108;49.988;8.182;2023-07-22T10:08:01;2.40;;;2.30;;
21886;SDS011;11108;49.988;8.182;2023-07-22T10:10:30;1.98;;;1.88;;
21886;SDS011;11108;49.988;8.182;2023-07-22T10:12:55;2.20;;;2.10;;
21886;SDS011;11108;49.988;8.182;2023-07-22T10:15:22;2.30;;;2.20;;
21886;SDS011;11108;49.988;8.182;2023-07-22T10:17:49;2.33;;;2.23;;
21886;SDS011;11108;49.988;8.182;2023-07-22T10:20:15;2.53;;;2.43;;
21886;SDS011;11108;49.988;8.182;2023-07-22T10:22:41;2.20;;;2.10;;
21886;SDS011;11108;49.988;8.182;2023-07-22T10:25:06;2.70;;;2.50;;
21886;SDS011;11108;49.988;8.182;2023-07-22T10:27:33;1.98;;;1.90;;
21886;SDS011;11108;49.988;8.182;2023-07-22T10:29:59;2.22;;;2.13;;
21886;SDS011;11108;49.988;8.182;2023-07-22T10:32:25;2.30;;;2.20;;
21886;SDS011;11108;49.988;8.182;2023-07-22T10:34:56;2.47;;;2.37;;
21886;SDS011;11108;49.988;8.182;2023-07-22T10:37:21;2.90;;;2.70;;
21886;SDS011;11108;49.988;8.182;2023-07-22T10:39:53;2.50;;;2.40;;
21886;SDS011;11108;49.988;8.182;2023-07-22T10:42:23;2.15;;;2.03;;
21886;SDS011;11108;49.988;8.182;2023-07-22T10:44:49;2.50;;;2.40;;
21886;SDS011;11108;49.988;8.182;2023-07-22T10:47:22;2.63;;;2.43;;
21886;SDS011;11108;49.988;8.182;2023-07-22T10:49:56;2.63;;;2.53;;
21886;SDS011;11108;49.988;8.182;2023-07-22T10:52:43;2.10;;;2.00;;
21886;SDS011;11108;49.988;8.182;2023-07-22T10:55:15;2.23;;;2.13;;
21886;SDS011;11108;49.988;8.182;2023-07-22T10:57:47;2.53;;;2.38;;
21886;SDS011;11108;49.988;8.182;2023-07-22T11:00:17;2.60;;;2.50;;
21886;SDS011;11108;49.988;8.182;2023-07-22T11:02:43;2.33;;;2.22;;
21886;SDS011;11108;49.988;8.182;2023-07-22T11:05:11;2.23;;;2.13;;
21886;SDS011;11108;49.988;8.182;2023-07-22T11:07:42;2.37;;;2.17;;
21886;SDS011;11108;49.988;8.182;2023-07-22T11:10:16;2.13;;;2.03;;
21886;SDS011;11108;49.988;8.182;2023-07-22T11:12:42;2.47;;;2.28;;
21886;SDS011;11108;49.988;8.182;2023-07-22T11:15:08;2.70;;;2.50;;
21886;SDS011;11108;49.988;8.182;2023-07-22T11:17:34;2.60;;;2.50;;
21886;SDS011;11108;49.988;8.182;2023-07-22T11:19:59;2.40;;;2.30;;
21886;SDS011;11108;49.988;8.182;2023-07-22T11:22:25;2.87;;;2.67;;
21886;SDS011;11108;49.988;8.182;2023-07-22T11:24:50;2.63;;;2.53;;
21886;SDS011;11108;49.988;8.182;2023-07-22T11:27:16;2.63;;;2.53;;
21886;SDS011;11108;49.988;8.182;2023-07-22T11:29:41;2.37;;;2.27;;
21886;SDS011;11108;49.988;8.182;2023-07-22T11:32:06;2.43;;;2.33;;
21886;SDS011;11108;49.988;8.182;2023-07-22T11:34:40;2.40;;;2.30;;
21886;SDS011;11108;49.988;8.182;2023-07-22T11:37:05;2.13;;;2.03;;
21886;SDS011;11108;49.988;8.182;2023-07-22T11:39:30;2.23;;;2.13;;
21886;SDS011;11108;49.988;8.182;2023-07-22T11:41:57;2.33;;;2.22;;
21886;SDS011;11108;49.988;8.182;2023-07-22T11:44:26;2.40;;;2.30;;
21886;SDS011;11108;49.988;8.182;2023-07-22T11:46:57;2.47;;;2.38;;
21886;SDS011;11108;49.988;8.182;2023-07-22T11:49:47;2.25;;;2.15;;
21886;SDS011;11108;49.988;8.182;2023-07-22T11:52:09;2.37;;;2.20;;
21886;SDS011;11108;49.988;8.182;2023-07-22T11:54:35;2.53;;;2.40;;
21886;SDS011;11108;49.988;8.182;2023-07-22T11:57:10;2.38;;;2.28;;
21886;SDS011;11108;49.988;8.182;2023-07-22T11:59:37;2.70;;;2.60;;
21886;SDS011;11108;49.988;8.182;2023-07-22T12:02:03;2.93;;;2.73;;
21886;SDS011;11108;49.988;8.182;2023-07-22T12:04:30;2.50;;;2.30;;
21886;SDS011;11108;49.988;8.182;2023-07-22T12:06:55;2.17;;;2.08;;
21886;SDS011;11108;49.988;8.182;2023-07-22T12:09:22;2.27;;;2.17;;
21886;SDS011;11108;49.988;8.182;2023-07-22T12:11:47;2.50;;;2.30;;
21886;SDS011;11108;49.988;8.182;2023-07-22T12:14:19;2.10;;;2.00;;
21886;SDS011;11108;49.988;8.182;2023-07-22T12:16:44;2.42;;;2.33;;
21886;SDS011;11108;49.988;8.182;2023-07-22T12:19:10;2.70;;;2.60;;
21886;SDS011;11108;49.988;8.182;2023-07-22T12:21:35;2.75;;;2.63;;
21886;SDS011;11108;49.988;8.182;2023-07-22T12:24:00;2.80;;;2.60;;
21886;SDS011;11108;49.988;8.182;2023-07-22T12:26:26;2.40;;;2.30;;
21886;SDS011;11108;49.988;8.182;2023-07-22T12:28:51;2.38;;;2.28;;
21886;SDS011;11108;49.988;8.182;2023-07-22T12:31:16;2.70;;;2.50;;
21886;SDS011;11108;49.988;8.182;2023-07-22T12:33:41;2.63;;;2.42;;
21886;SDS011;11108;49.988;8.182;2023-07-22T12:36:07;2.55;;;2.45;;
21886;SDS011;11108;49.988;8.182;2023-07-22T12:38:32;2.40;;;2.30;;
21886;SDS011;11108;49.988;8.182;2023-07-22T12:40:57;2.33;;;2.23;;
21886;SDS011;11108;49.988;8.182;2023-07-22T12:43:22;2.50;;;2.40;;
21886;SDS011;11108;49.988;8.182;2023-07-22T12:45:48;2.70;;;2.50;;
21886;SDS011;11108;49.988;8.182;2023-07-22T12:48:13;2.67;;;2.58;;
21886;SDS011;11108;49.988;8.182;2023-07-22T12:50:38;2.40;;;2.30;;
21886;SDS011;11108;49.988;8.182;2023-07-22T12:53:03;3.00;;;2.80;;
21886;SDS011;11108;49.988;8.182;2023-07-22T12:55:29;2.30;;;2.20;;
21886;SDS011;11108;49.988;8.182;2023-07-22T12:57:54;2.70;;;2.50;;
21886;SDS011;11108;49.988;8.182;2023-07-22T13:00:19;2.60;;;2.40;;
21886;SDS011;11108;49.988;8.182;2023-07-22T13:02:46;2.50;;;2.40;;
21886;SDS011;11108;49.988;8.182;2023-07-22T13:05:11;2.30;;;2.20;;
21886;SDS011;11108;49.988;8.182;2023-07-22T13:07:36;2.40;;;2.30;;
21886;SDS011;11108;49.988;8.182;2023-07-22T13:10:02;2.63;;;2.53;;
21886;SDS011;11108;49.988;8.182;2023-07-22T13:12:30;2.17;;;2.08;;
21886;SDS011;11108;49.988;8.182;2023-07-22T13:14:55;2.85;;;2.65;;
21886;SDS011;11108;49.988;8.182;2023-07-22T13:17:20;2.30;;;2.10;;
21886;SDS011;11108;49.988;8.182;2023-07-22T13:19:46;2.40;;;2.30;;
21886;SDS011;11108;49.988;8.182;2023-07-22T13:22:11;2.25;;;2.15;;
21886;SDS011;11108;49.988;8.182;2023-07-22T13:24:36;2.50;;;2.40;;
21886;SDS011;11108;49.988;8.182;2023-07-22T13:27:02;2.23;;;2.13;;
21886;SDS011;11108;49.988;8.182;2023-07-22T13:29:27;2.17;;;2.07;;
21886;SDS011;11108;49.988;8.182;2023-07-22T13:31:55;2.50;;;2.30;;
21886;SDS011;11108;49.988;8.182;2023-07-22T13:34:21;2.28;;;2.17;;
21886;SDS011;11108;49.988;8.182;2023-07-22T13:36:46;2.70;;;2.60;;
21886;SDS011;11108;49.988;8.182;2023-07-22T13:39:11;2.55;;;2.35;;
21886;SDS011;11108;49.988;8.182;2023-07-22T13:41:36;2.20;;;2.10;;
21886;SDS011;11108;49.988;8.182;2023-07-22T13:44:02;2.40;;;2.23;;
21886;SDS011;11108;49.988;8.182;2023-07-22T13:46:27;2.40;;;2.30;;
21886;SDS011;11108;49.988;8.182;2023-07-22T13:48:52;2.50;;;2.40;;
21886;SDS011;11108;49.988;8.182;2023-07-22T13:51:18;2.10;;;2.00;;
21886;SDS011;11108;49.988;8.182;2023-07-22T13:53:43;2.40;;;2.13;;
21886;SDS011;11108;49.988;8.182;2023-07-22T13:56:08;2.80;;;2.60;;
21886;SDS011;11108;49.988;8.182;2023-07-22T13:58:33;2.70;;;2.50;;
21886;SDS011;11108;49.988;8.182;2023-07-22T14:00:58;2.53;;;2.40;;
21886;SDS011;11108;49.988;8.182;2023-07-22T14:03:24;2.17;;;2.07;;
21886;SDS011;11108;49.988;8.182;2023-07-22T14:05:49;2.67;;;2.57;;
21886;SDS011;11108;49.988;8.182;2023-07-22T14:08:14;2.73;;;2.57;;
21886;SDS011;11108;49.988;8.182;2023-07-22T14:10:39;2.30;;;2.20;;
21886;SDS011;11108;49.988;8.182;2023-07-22T14:13:04;2.37;;;2.27;;
21886;SDS011;11108;49.988;8.182;2023-07-22T14:15:30;2.33;;;2.22;;
21886;SDS011;11108;49.988;8.182;2023-07-22T14:17:55;2.40;;;2.30;;
21886;SDS011;11108;49.988;8.182;2023-07-22T14:20:20;2.70;;;2.50;;
21886;SDS011;11108;49.988;8.182;2023-07-22T14:22:46;2.20;;;2.10;;
21886;SDS011;11108;49.988;8.182;2023-07-22T14:25:12;2.37;;;2.27;;
21886;SDS011;11108;49.988;8.182;2023-07-22T14:27:40;2.40;;;2.30;;
21886;SDS011;11108;49.988;8.182;2023-07-22T14:30:06;2.60;;;2.50;;
21886;SDS011;11108;49.988;8.182;2023-07-22T14:32:31;2.65;;;2.45;;
21886;SDS011;11108;49.988;8.182;2023-07-22T14:34:56;2.40;;;2.30;;
21886;SDS011;11108;49.988;8.182;2023-07-22T14:37:21;2.35;;;2.25;;
21886;SDS011;11108;49.988;8.182;2023-07-22T14:39:46;2.15;;;2.05;;